Terminal Aerodrome Forecast
Issued by NWS Charleston, WV

Current Version | Previous Version | Text Only | Print | Product List | Glossary Off
Versions: 1 2 3 4 5 6 7 8 9 10 11 12 13 14 15 16 17 18 19 20 21 22 23 24 25

000
FTUS41 KRLX 151100
TAFCRW
TAF
KCRW 151120Z 1512/1612 00000KT 1/4SM FG VV001
     FM151300 00000KT 1SM BR SCT001
     FM151400 00000KT 6SM BR SCT090
     FM151500 VRB03KT P6SM SCT030
     FM160600 VRB03KT 4SM BR BKN060=

USA.gov is the U.S. government's official web portal to all federal, state and local government web resources and services.